Time;durP1;ratioP1;P1;durP2;ratioP2;P2;SDS_P1;SDS_P2;PMS_P1;PMS_P2;Temp;Humidity;BMP_temperature;BMP_pressure;BME280_temperature;BME280_humidity;BME280_pressure;Samples;Min_cycle;Max_cycle;Signal;HPM_P1;HPM_P2
2021/04/10 00:02:00;;;;;;;9.05;1.80;;;;;;;;;;4120805;34;20064;-79
2021/04/10 00:04:29;;;;;;;7.62;1.58;;;;;;;;;;4128039;34;20091;-79
2021/04/10 00:06:57;;;;;;;22.35;15.90;;;;;;;;;;4123893;34;20073;-79
2021/04/10 00:09:25;;;;;;;34.42;25.85;;;;;;;;;;4125837;34;20269;-79
2021/04/10 00:11:55;;;;;;;32.65;23.27;;;;;;;;;;4115943;34;20061;-79
2021/04/10 00:14:23;;;;;;;34.10;23.10;;;;;;;;;;4128569;34;20121;-79
2021/04/10 00:16:51;;;;;;;33.42;23.77;;;;;;;;;;4120481;34;20441;-81
2021/04/10 00:19:20;;;;;;;32.22;21.87;;;;;;;;;;4124950;34;20498;-79
2021/04/10 00:21:48;;;;;;;30.65;19.85;;;;;;;;;;4130859;34;20122;-79
2021/04/10 00:24:16;;;;;;;35.08;23.50;;;;;;;;;;4123814;34;20691;-79
2021/04/10 00:26:44;;;;;;;33.83;22.50;;;;;;;;;;4123804;34;20963;-80
2021/04/10 00:29:12;;;;;;;35.28;21.67;;;;;;;;;;4120171;34;20065;-79
2021/04/10 00:31:40;;;;;;;33.17;21.00;;;;;;;;;;4118836;34;20053;-79
2021/04/10 00:34:08;;;;;;;36.60;26.30;;;;;;;;;;4123101;34;20061;-79
2021/04/10 00:36:36;;;;;;;29.63;24.50;;;;;;;;;;4117359;34;20117;-79
2021/04/10 00:39:04;;;;;;;35.22;27.30;;;;;;;;;;4119094;34;20091;-79
2021/04/10 00:41:32;;;;;;;40.60;36.17;;;;;;;;;;4131295;34;20065;-79
2021/04/10 00:44:05;;;;;;;32.83;21.95;;;;;;;;;;4119086;34;20162;-80
2021/04/10 00:46:33;;;;;;;33.05;22.58;;;;;;;;;;4123805;34;20441;-79
2021/04/10 00:49:01;;;;;;;34.40;24.55;;;;;;;;;;4125130;34;20472;-79
2021/04/10 00:51:29;;;;;;;29.90;21.27;;;;;;;;;;4117870;34;20556;-79
2021/04/10 00:53:57;;;;;;;34.55;28.67;;;;;;;;;;4120593;34;20132;-79
2021/04/10 00:56:26;;;;;;;35.13;29.87;;;;;;;;;;4120535;34;20143;-81
2021/04/10 00:58:54;;;;;;;39.35;32.20;;;;;;;;;;4123857;34;20061;-80
2021/04/10 01:01:22;;;;;;;40.22;32.78;;;;;;;;;;4121690;34;20529;-80
2021/04/10 01:03:51;;;;;;;39.03;32.35;;;;;;;;;;4116716;34;20509;-80
2021/04/10 01:06:18;;;;;;;38.03;31.83;;;;;;;;;;4127083;34;20122;-78
2021/04/10 01:08:47;;;;;;;40.95;32.92;;;;;;;;;;4126308;34;20049;-79
2021/04/10 01:11:30;;;;;;;40.28;34.10;;;;;;;;;;4123773;34;20054;-79
2021/04/10 01:14:17;;;;;;;43.17;34.95;;;;;;;;;;4118183;34;20117;-79
2021/04/10 01:16:50;;;;;;;42.45;37.70;;;;;;;;;;4136341;34;20438;-79
2021/04/10 01:19:45;;;;;;;38.83;31.23;;;;;;;;;;4121435;34;20065;-79
2021/04/10 01:22:20;;;;;;;36.15;29.90;;;;;;;;;;4115591;34;20127;-79
2021/04/10 01:25:01;;;;;;;38.33;29.87;;;;;;;;;;4122021;34;20088;-80
2021/04/10 01:27:40;;;;;;;35.92;27.90;;;;;;;;;;4128582;34;20401;-79
2021/04/10 01:30:14;;;;;;;32.33;22.77;;;;;;;;;;4125755;34;20472;-79
2021/04/10 01:32:55;;;;;;;30.42;21.52;;;;;;;;;;4120330;34;20178;-79
2021/04/10 01:35:28;;;;;;;13.25;9.02;;;;;;;;;;4121187;34;20120;-79
2021/04/10 01:37:58;;;;;;;24.52;19.27;;;;;;;;;;4124765;34;20119;-79
2021/04/10 01:40:29;;;;;;;34.00;29.25;;;;;;;;;;4126696;34;20449;-80
2021/04/10 01:42:59;;;;;;;32.30;28.73;;;;;;;;;;4118127;34;20112;-79
2021/04/10 01:45:28;;;;;;;8.95;7.10;;;;;;;;;;4120303;34;20499;-79
2021/04/10 01:47:58;;;;;;;8.60;6.20;;;;;;;;;;4116971;34;20147;-79
2021/04/10 01:50:27;;;;;;;13.07;7.65;;;;;;;;;;4119404;34;20520;-80
2021/04/10 01:52:56;;;;;;;17.62;16.02;;;;;;;;;;4119969;34;20104;-81
2021/04/10 01:55:25;;;;;;;25.65;22.90;;;;;;;;;;4116532;34;20339;-79
2021/04/10 01:57:54;;;;;;;17.25;13.02;;;;;;;;;;4118734;34;20774;-80
2021/04/10 02:00:25;;;;;;;20.85;17.65;;;;;;;;;;4114778;34;20087;-79
2021/04/10 02:02:54;;;;;;;15.25;12.50;;;;;;;;;;4117320;34;20072;-79
2021/04/10 02:05:22;;;;;;;13.10;11.73;;;;;;;;;;4117528;34;20117;-78
2021/04/10 02:07:51;;;;;;;23.38;20.88;;;;;;;;;;4118224;34;20079;-80
2021/04/10 02:10:26;;;;;;;25.50;22.60;;;;;;;;;;4121631;34;20065;-79
2021/04/10 02:12:57;;;;;;;31.92;25.50;;;;;;;;;;4113539;34;20498;-79
2021/04/10 02:15:26;;;;;;;28.40;24.92;;;;;;;;;;4118450;34;20136;-79
2021/04/10 02:17:56;;;;;;;21.33;19.05;;;;;;;;;;4120788;34;20047;-79
2021/04/10 02:20:24;;;;;;;33.83;28.65;;;;;;;;;;4127585;34;20072;-79
2021/04/10 02:22:56;;;;;;;30.88;24.92;;;;;;;;;;4124186;34;20129;-79
2021/04/10 02:25:29;;;;;;;35.97;28.15;;;;;;;;;;4120539;34;20072;-80
2021/04/10 02:27:59;;;;;;;38.25;30.83;;;;;;;;;;4119829;34;20140;-79
2021/04/10 02:30:27;;;;;;;29.85;26.75;;;;;;;;;;4118834;34;20270;-79
2021/04/10 02:32:57;;;;;;;37.28;29.37;;;;;;;;;;4120201;34;20092;-78
2021/04/10 02:35:28;;;;;;;38.38;32.28;;;;;;;;;;4121903;34;20104;-78
2021/04/10 02:37:58;;;;;;;39.10;32.50;;;;;;;;;;4124788;34;20444;-79
2021/04/10 02:40:29;;;;;;;41.95;33.25;;;;;;;;;;4127683;34;20233;-78
2021/04/10 02:42:59;;;;;;;42.28;32.38;;;;;;;;;;4128193;34;20118;-78
2021/04/10 02:45:28;;;;;;;43.45;32.88;;;;;;;;;;4124264;34;20661;-79
2021/04/10 02:47:58;;;;;;;45.75;33.53;;;;;;;;;;4115093;34;20155;-79
2021/04/10 02:50:27;;;;;;;40.67;33.70;;;;;;;;;;4117691;34;20151;-78
2021/04/10 02:52:56;;;;;;;35.30;31.10;;;;;;;;;;4120580;34;20152;-79
2021/04/10 02:55:32;;;;;;;42.08;32.30;;;;;;;;;;4115384;34;20115;-80
2021/04/10 02:58:02;;;;;;;36.97;31.65;;;;;;;;;;4119280;34;20088;-81
2021/04/10 03:00:31;;;;;;;36.65;32.45;;;;;;;;;;4127146;34;20369;-79
2021/04/10 03:03:02;;;;;;;39.90;33.58;;;;;;;;;;4120247;34;20397;-77
2021/04/10 03:05:30;;;;;;;37.25;33.35;;;;;;;;;;4123890;34;20281;-78
2021/04/10 03:07:59;;;;;;;37.15;32.10;;;;;;;;;;4117543;34;20077;-78
2021/04/10 03:10:28;;;;;;;36.67;32.67;;;;;;;;;;4146425;29;20135;-93
2021/04/10 03:13:02;;;;;;;38.65;31.62;;;;;;;;;;4118089;34;20414;-92
2021/04/10 03:15:34;;;;;;;35.55;31.60;;;;;;;;;;4129532;34;20135;-93
2021/04/10 03:18:06;;;;;;;36.22;31.15;;;;;;;;;;4135117;34;20057;-92
2021/04/10 03:20:41;;;;;;;35.00;30.30;;;;;;;;;;4124029;34;20106;-96
2021/04/10 03:23:18;;;;;;;38.67;29.70;;;;;;;;;;4128517;34;20148;-92
2021/04/10 03:25:49;;;;;;;37.65;31.52;;;;;;;;;;4119706;34;20061;-94
2021/04/10 03:28:31;;;;;;;34.92;31.23;;;;;;;;;;4121230;34;20104;-91
2021/04/10 03:31:02;;;;;;;39.75;31.62;;;;;;;;;;4115228;34;20089;-91
2021/04/10 03:33:33;;;;;;;37.42;29.23;;;;;;;;;;4139020;34;20069;-92
2021/04/10 03:36:07;;;;;;;33.97;26.55;;;;;;;;;;4107576;34;20071;-92
2021/04/10 03:38:36;;;;;;;36.38;25.88;;;;;;;;;;4111716;34;20088;-91
2021/04/10 03:41:08;;;;;;;37.80;28.05;;;;;;;;;;4138193;34;20053;-93
2021/04/10 03:43:39;;;;;;;35.10;26.90;;;;;;;;;;4131701;34;20099;-91
2021/04/10 03:46:12;;;;;;;36.23;26.47;;;;;;;;;;4129182;34;20069;-91
2021/04/10 03:48:46;;;;;;;34.20;23.27;;;;;;;;;;4121725;34;20100;-92
2021/04/10 03:51:15;;;;;;;39.45;30.20;;;;;;;;;;4130181;34;20139;-91
2021/04/10 03:53:46;;;;;;;33.28;28.50;;;;;;;;;;4115972;34;20151;-91
2021/04/10 03:56:15;;;;;;;21.23;18.65;;;;;;;;;;4125911;34;20082;-91
2021/04/10 03:58:44;;;;;;;25.05;17.42;;;;;;;;;;4116516;34;20124;-92
2021/04/10 04:01:23;;;;;;;16.00;12.63;;;;;;;;;;4138917;34;20149;-92
2021/04/10 04:03:53;;;;;;;13.07;10.05;;;;;;;;;;4129458;34;20083;-93
2021/04/10 04:06:27;;;;;;;29.50;18.85;;;;;;;;;;4117887;34;20462;-93
2021/04/10 04:08:57;;;;;;;29.83;18.45;;;;;;;;;;4117253;34;20053;-93
2021/04/10 04:11:28;;;;;;;12.52;9.68;;;;;;;;;;4129836;34;20056;-92
2021/04/10 04:13:57;;;;;;;9.32;7.80;;;;;;;;;;4113538;34;20173;-92
2021/04/10 04:16:25;;;;;;;38.25;30.70;;;;;;;;;;4130556;34;20107;-92
2021/04/10 04:18:57;;;;;;;30.75;23.50;;;;;;;;;;4130797;34;20404;-94
2021/04/10 04:21:31;;;;;;;35.80;28.15;;;;;;;;;;4130517;34;20500;-94
2021/04/10 04:23:59;;;;;;;42.25;33.28;;;;;;;;;;4116258;34;20041;-93
2021/04/10 04:26:40;;;;;;;33.78;29.73;;;;;;;;;;4127096;34;20537;-95
2021/04/10 04:29:08;;;;;;;40.50;35.53;;;;;;;;;;4129748;34;20570;-92
2021/04/10 04:31:37;;;;;;;26.70;23.98;;;;;;;;;;4125759;34;20084;-92
2021/04/10 04:34:07;;;;;;;39.10;33.38;;;;;;;;;;4124401;34;20084;-91
2021/04/10 04:36:39;;;;;;;37.45;31.17;;;;;;;;;;4131215;34;20404;-91
2021/04/10 04:39:13;;;;;;;26.65;22.40;;;;;;;;;;4130422;34;20127;-93
2021/04/10 04:41:45;;;;;;;44.15;39.58;;;;;;;;;;4119718;34;20442;-93
2021/04/10 04:44:13;;;;;;;48.30;43.33;;;;;;;;;;4130001;34;20057;-91
2021/04/10 04:46:41;;;;;;;43.97;39.00;;;;;;;;;;4122452;34;20118;-93
2021/04/10 04:49:12;;;;;;;47.58;42.65;;;;;;;;;;4120825;34;20065;-91
2021/04/10 04:51:44;;;;;;;44.95;40.20;;;;;;;;;;4121977;34;20080;-92
2021/04/10 04:54:18;;;;;;;27.17;21.17;;;;;;;;;;4118693;34;20127;-92
2021/04/10 04:56:52;;;;;;;32.97;27.90;;;;;;;;;;4126634;34;20427;-92
2021/04/10 04:59:21;;;;;;;6.15;1.55;;;;;;;;;;4113413;34;20139;-92
2021/04/10 05:01:51;;;;;;;6.53;1.70;;;;;;;;;;4125999;34;20500;-93
2021/04/10 05:04:24;;;;;;;7.82;1.45;;;;;;;;;;4121889;34;20100;-92
2021/04/10 05:06:57;;;;;;;8.15;1.45;;;;;;;;;;4132138;34;20080;-90
2021/04/10 05:09:30;;;;;;;5.35;1.40;;;;;;;;;;4122417;34;20510;-94
2021/04/10 05:12:04;;;;;;;5.97;1.50;;;;;;;;;;4124253;34;20588;-92
2021/04/10 05:14:57;;;;;;;6.37;1.48;;;;;;;;;;4132920;34;20111;-92
2021/04/10 05:17:26;;;;;;;5.80;1.55;;;;;;;;;;4131687;34;20383;-93
2021/04/10 05:19:58;;;;;;;7.53;1.33;;;;;;;;;;4123044;34;20128;-93
2021/04/10 05:22:27;;;;;;;5.37;1.40;;;;;;;;;;4117498;34;20073;-93
2021/04/10 05:25:02;;;;;;;6.35;1.42;;;;;;;;;;4112320;34;20153;-93
2021/04/10 05:27:31;;;;;;;4.55;1.35;;;;;;;;;;4120522;34;20107;-92
2021/04/10 05:30:03;;;;;;;6.05;1.60;;;;;;;;;;4124375;34;20855;-92
2021/04/10 05:32:34;;;;;;;6.57;1.60;;;;;;;;;;4118400;34;20057;-93
2021/04/10 05:35:04;;;;;;;8.05;1.30;;;;;;;;;;4120455;34;20075;-92
2021/04/10 05:37:35;;;;;;;6.90;1.40;;;;;;;;;;4119273;34;20061;-93
2021/04/10 05:40:06;;;;;;;4.95;1.30;;;;;;;;;;4132072;34;20065;-92
2021/04/10 05:42:36;;;;;;;9.48;2.05;;;;;;;;;;4128440;34;20091;-92
2021/04/10 05:45:07;;;;;;;5.68;1.50;;;;;;;;;;4112387;34;20488;-91
2021/04/10 05:47:35;;;;;;;6.00;1.40;;;;;;;;;;4122078;34;20138;-92
2021/04/10 05:50:04;;;;;;;4.28;1.30;;;;;;;;;;4108481;34;20076;-92
2021/04/10 05:52:34;;;;;;;7.37;1.25;;;;;;;;;;4122354;34;20079;-92
2021/04/10 05:55:03;;;;;;;5.55;1.45;;;;;;;;;;4121665;34;20065;-94
2021/04/10 05:57:31;;;;;;;5.37;1.35;;;;;;;;;;4111966;34;20124;-92
2021/04/10 06:00:11;;;;;;;9.57;5.20;;;;;;;;;;4128968;34;20065;-93
2021/04/10 06:02:41;;;;;;;6.53;1.60;;;;;;;;;;4115415;34;20064;-94
2021/04/10 06:05:15;;;;;;;10.35;1.50;;;;;;;;;;4132963;34;20740;-93
2021/04/10 06:07:43;;;;;;;5.57;1.40;;;;;;;;;;4116995;34;20093;-92
2021/04/10 06:10:16;;;;;;;7.40;5.10;;;;;;;;;;4130883;34;20072;-92
2021/04/10 06:12:44;;;;;;;48.80;43.13;;;;;;;;;;4135269;34;20052;-92
2021/04/10 06:15:17;;;;;;;11.90;7.78;;;;;;;;;;4119437;34;20065;-91
2021/04/10 06:17:46;;;;;;;47.70;42.65;;;;;;;;;;4122236;34;20065;-91
2021/04/10 06:20:21;;;;;;;33.15;29.87;;;;;;;;;;4119714;34;20130;-95
2021/04/10 06:22:54;;;;;;;36.75;31.00;;;;;;;;;;4119242;34;20053;-92
2021/04/10 06:25:22;;;;;;;38.28;30.52;;;;;;;;;;4121715;34;20058;-93
2021/04/10 06:28:03;;;;;;;51.65;40.35;;;;;;;;;;4119626;34;20054;-94
2021/04/10 06:30:34;;;;;;;45.97;35.33;;;;;;;;;;4119310;34;20111;-93
2021/04/10 06:33:02;;;;;;;11.63;2.08;;;;;;;;;;4136290;34;20053;-93
2021/04/10 06:35:33;;;;;;;9.60;1.87;;;;;;;;;;4122569;34;20065;-94
2021/04/10 06:38:01;;;;;;;7.12;1.60;;;;;;;;;;4128838;34;20128;-93
2021/04/10 06:40:30;;;;;;;6.00;1.50;;;;;;;;;;4121563;34;20099;-93
2021/04/10 06:43:02;;;;;;;7.12;1.77;;;;;;;;;;4125949;34;20058;-94
2021/04/10 06:45:32;;;;;;;5.75;1.30;;;;;;;;;;4120264;34;20516;-94
2021/04/10 06:48:00;;;;;;;4.82;1.45;;;;;;;;;;4127102;34;20064;-93
2021/04/10 06:50:31;;;;;;;7.82;1.58;;;;;;;;;;4131005;34;20111;-94
2021/04/10 06:53:05;;;;;;;3.65;1.20;;;;;;;;;;4141999;34;20119;-92
2021/04/10 06:55:34;;;;;;;3.97;1.60;;;;;;;;;;4131673;34;20057;-92
2021/04/10 06:58:11;;;;;;;7.50;2.17;;;;;;;;;;4131092;34;20079;-92
2021/04/10 07:00:40;;;;;;;45.70;40.72;;;;;;;;;;4131293;34;20049;-94
2021/04/10 07:03:08;;;;;;;44.90;40.72;;;;;;;;;;4118478;34;20095;-92
2021/04/10 07:05:36;;;;;;;8.93;2.03;;;;;;;;;;4122242;34;20525;-92
2021/04/10 07:08:09;;;;;;;54.58;49.75;;;;;;;;;;4120149;34;20094;-92
2021/04/10 07:10:37;;;;;;;5.25;1.70;;;;;;;;;;4116414;34;20071;-92
2021/04/10 07:13:08;;;;;;;64.87;58.92;;;;;;;;;;4129684;34;20060;-94
2021/04/10 07:15:53;;;;;;;7.05;1.50;;;;;;;;;;4119029;34;20072;-94
2021/04/10 07:18:32;;;;;;;5.60;3.67;;;;;;;;;;4121646;34;20080;-91
2021/04/10 07:21:17;;;;;;;10.43;7.72;;;;;;;;;;4120371;34;20065;-93
2021/04/10 07:23:45;;;;;;;;;;;;;;;;;;4134039;34;20053;-95
2021/04/10 07:26:14;;;;;;;55.25;50.58;;;;;;;;;;4120651;34;19960;-95
2021/04/10 07:28:42;;;;;;;5.32;1.67;;;;;;;;;;4116927;34;20053;-96
2021/04/10 07:31:12;;;;;;;7.10;3.03;;;;;;;;;;4109861;34;20352;-95
2021/04/10 07:33:42;;;;;;;12.73;11.40;;;;;;;;;;4113440;34;20100;-93
2021/04/10 07:36:11;;;;;;;5.07;1.85;;;;;;;;;;4129927;34;20432;-93
2021/04/10 07:38:41;;;;;;;4.25;1.50;;;;;;;;;;4110661;34;20054;-93
2021/04/10 07:41:12;;;;;;;7.90;4.62;;;;;;;;;;4126978;34;20065;-95
2021/04/10 07:43:42;;;;;;;3.72;0.90;;;;;;;;;;4135478;34;20502;-94
2021/04/10 07:46:21;;;;;;;4.22;1.60;;;;;;;;;;4116823;34;20530;-95
2021/04/10 07:49:10;;;;;;;2.97;1.02;;;;;;;;;;4121020;34;20536;-94
2021/04/10 07:51:57;;;;;;;3.00;0.90;;;;;;;;;;4140621;34;20075;-93
2021/04/10 07:54:27;;;;;;;1.83;0.70;;;;;;;;;;4124476;34;20280;-94
2021/04/10 07:56:57;;;;;;;6.30;2.83;;;;;;;;;;4125189;34;20041;-94
2021/04/10 07:59:25;;;;;;;5.10;2.08;;;;;;;;;;4114582;34;20062;-95
2021/04/10 08:01:54;;;;;;;4.70;1.10;;;;;;;;;;4132021;34;20083;-96
2021/04/10 08:04:23;;;;;;;3.45;1.00;;;;;;;;;;4111019;34;20094;-94
2021/04/10 08:06:59;;;;;;;3.40;1.00;;;;;;;;;;4105546;34;20086;-95
2021/04/10 08:09:46;;;;;;;4.68;1.10;;;;;;;;;;4129373;34;20088;-95
2021/04/10 08:12:14;;;;;;;4.62;1.30;;;;;;;;;;4115045;34;20057;-95
2021/04/10 08:14:44;;;;;;;4.93;1.00;;;;;;;;;;4104622;34;20103;-96
2021/04/10 08:17:13;;;;;;;3.00;1.00;;;;;;;;;;4109786;34;20072;-95
2021/04/10 08:19:41;;;;;;;5.50;1.17;;;;;;;;;;4129158;34;20096;-92
2021/04/10 08:22:13;;;;;;;3.40;1.15;;;;;;;;;;4116313;34;20126;-93
2021/04/10 08:24:43;;;;;;;3.65;0.95;;;;;;;;;;4122307;34;20073;-92
2021/04/10 08:27:12;;;;;;;2.20;0.90;;;;;;;;;;4126689;34;20442;-92
2021/04/10 08:29:42;;;;;;;3.45;0.90;;;;;;;;;;4117523;34;20146;-93
2021/04/10 08:32:10;;;;;;;3.30;1.00;;;;;;;;;;4118419;34;20334;-92
2021/04/10 08:34:39;;;;;;;3.35;0.90;;;;;;;;;;4110942;34;20110;-96
2021/04/10 08:37:11;;;;;;;9.32;1.37;;;;;;;;;;4137663;34;20075;-96
2021/04/10 08:39:48;;;;;;;4.15;0.98;;;;;;;;;;4118792;34;20249;-94
2021/04/10 08:42:17;;;;;;;7.32;1.12;;;;;;;;;;4110471;34;20089;-95
2021/04/10 08:44:46;;;;;;;3.28;1.00;;;;;;;;;;4127871;34;20100;-93
2021/04/10 08:47:14;;;;;;;2.97;0.88;;;;;;;;;;4138452;34;20454;-92
2021/04/10 08:49:45;;;;;;;3.40;0.90;;;;;;;;;;4119067;34;20091;-93
2021/04/10 08:52:22;;;;;;;5.50;0.95;;;;;;;;;;4130905;34;20108;-93
2021/04/10 08:54:53;;;;;;;3.33;1.08;;;;;;;;;;4122312;34;20460;-93
2021/04/10 08:57:22;;;;;;;5.55;1.10;;;;;;;;;;4127818;34;20524;-93
2021/04/10 08:59:53;;;;;;;5.00;1.15;;;;;;;;;;4127063;34;20108;-93
2021/04/10 09:02:22;;;;;;;5.37;1.25;;;;;;;;;;4122602;34;20085;-95
2021/04/10 09:04:54;;;;;;;3.55;1.10;;;;;;;;;;4120110;34;20073;-93
2021/04/10 09:08:01;;;;;;;4.13;1.03;;;;;;;;;;4131469;34;20143;-93
2021/04/10 09:10:29;;;;;;;2.78;0.98;;;;;;;;;;4074665;35;20121;-95
2021/04/10 09:13:06;;;;;;;3.62;1.10;;;;;;;;;;4105442;34;20121;-93
2021/04/10 09:15:38;;;;;;;2.55;1.15;;;;;;;;;;4132940;34;20502;-93
2021/04/10 09:18:10;;;;;;;2.60;0.93;;;;;;;;;;4123597;34;20096;-93
2021/04/10 09:20:48;;;;;;;2.03;1.00;;;;;;;;;;4130568;34;20475;-92
2021/04/10 09:23:25;;;;;;;5.72;1.33;;;;;;;;;;4136144;34;20793;-91
2021/04/10 09:26:07;;;;;;;2.80;0.95;;;;;;;;;;4115438;34;20075;-92
2021/04/10 09:28:59;;;;;;;3.90;1.30;;;;;;;;;;4129107;34;20069;-93
2021/04/10 09:31:36;;;;;;;2.33;1.10;;;;;;;;;;4112148;34;20123;-93
2021/04/10 09:34:08;;;;;;;3.35;1.10;;;;;;;;;;4127372;34;20064;-95
2021/04/10 09:37:22;;;;;;;4.45;1.30;;;;;;;;;;4118189;34;20108;-93
2021/04/10 09:40:09;;;;;;;3.60;1.40;;;;;;;;;;4138897;34;20119;-95
2021/04/10 09:42:50;;;;;;;3.28;1.23;;;;;;;;;;4114276;34;20049;-91
2021/04/10 09:45:30;;;;;;;2.85;1.10;;;;;;;;;;4140074;34;20187;-92
2021/04/10 09:48:04;;;;;;;12.13;1.83;;;;;;;;;;4132606;34;20064;-93
2021/04/10 09:50:41;;;;;;;4.82;1.30;;;;;;;;;;4131914;34;20087;-94
2021/04/10 09:53:16;;;;;;;2.62;1.08;;;;;;;;;;4122743;34;20071;-93
2021/04/10 09:55:45;;;;;;;3.78;1.20;;;;;;;;;;4127327;34;20143;-93
2021/04/10 09:58:20;;;;;;;8.98;1.40;;;;;;;;;;4117874;34;20455;-93
2021/04/10 10:01:00;;;;;;;3.03;1.20;;;;;;;;;;4115850;34;20748;-92
2021/04/10 10:03:28;;;;;;;2.55;1.00;;;;;;;;;;4130618;34;20143;-93
2021/04/10 10:06:27;;;;;;;3.28;0.82;;;;;;;;;;4120761;34;20084;-92
2021/04/10 10:08:56;;;;;;;4.75;1.25;;;;;;;;;;4126672;34;20062;-91
2021/04/10 10:11:24;;;;;;;3.45;1.20;;;;;;;;;;4129032;34;20119;-94
2021/04/10 10:13:55;;;;;;;2.67;1.20;;;;;;;;;;4119970;34;20151;-93
2021/04/10 10:16:26;;;;;;;5.80;1.00;;;;;;;;;;4118056;34;20085;-89
2021/04/10 10:19:01;;;;;;;3.17;1.20;;;;;;;;;;4129542;34;20124;-94
2021/04/10 10:21:32;;;;;;;3.62;0.88;;;;;;;;;;4123731;34;20107;-92
2021/04/10 10:24:01;;;;;;;3.33;1.08;;;;;;;;;;4123833;34;20069;-94
2021/04/10 10:26:35;;;;;;;3.00;1.00;;;;;;;;;;4119425;34;20439;-93
2021/04/10 10:29:08;;;;;;;3.87;0.80;;;;;;;;;;4138178;34;20087;-92
2021/04/10 10:32:03;;;;;;;2.42;0.98;;;;;;;;;;4128721;34;20095;-92
2021/04/10 10:34:31;;;;;;;1.62;1.10;;;;;;;;;;4121364;34;20097;-92
2021/04/10 10:37:05;;;;;;;4.35;1.10;;;;;;;;;;4093499;34;20088;-94
2021/04/10 10:39:39;;;;;;;2.87;1.05;;;;;;;;;;4129769;34;20061;-93
2021/04/10 10:42:08;;;;;;;2.95;1.12;;;;;;;;;;4126810;34;20092;-93
2021/04/10 10:44:36;;;;;;;3.15;1.20;;;;;;;;;;4111705;34;20112;-93
2021/04/10 10:47:06;;;;;;;3.40;1.12;;;;;;;;;;4118776;34;20061;-92
2021/04/10 10:49:35;;;;;;;4.00;1.17;;;;;;;;;;4128815;34;20090;-93
2021/04/10 10:52:04;;;;;;;3.60;1.00;;;;;;;;;;4126623;34;20053;-93
2021/04/10 10:54:39;;;;;;;3.58;1.40;;;;;;;;;;4132097;34;20057;-94
2021/04/10 10:57:08;;;;;;;5.45;1.20;;;;;;;;;;4120747;34;20107;-95
2021/04/10 10:59:56;;;;;;;2.95;0.95;;;;;;;;;;4122173;34;20192;-94
2021/04/10 11:02:25;;;;;;;3.92;1.00;;;;;;;;;;4126860;34;20069;-93
2021/04/10 11:04:54;;;;;;;3.78;1.37;;;;;;;;;;4109655;34;20423;-94
2021/04/10 11:07:27;;;;;;;3.12;1.20;;;;;;;;;;4116923;34;20073;-93
2021/04/10 11:09:56;;;;;;;3.08;1.20;;;;;;;;;;4127936;34;20084;-91
2021/04/10 11:12:25;;;;;;;2.40;1.10;;;;;;;;;;4129963;34;20105;-93
2021/04/10 11:15:01;;;;;;;3.95;1.10;;;;;;;;;;4129350;34;20136;-93
2021/04/10 11:17:33;;;;;;;4.22;1.00;;;;;;;;;;4114506;34;20080;-94
2021/04/10 11:20:21;;;;;;;3.28;0.98;;;;;;;;;;4117716;34;20045;-92
2021/04/10 11:23:22;;;;;;;7.15;1.58;;;;;;;;;;4120855;34;20543;-94
2021/04/10 11:25:51;;;;;;;2.70;0.82;;;;;;;;;;4110742;34;20471;-92
2021/04/10 11:28:30;;;;;;;11.52;1.58;;;;;;;;;;4123077;34;20068;-93
2021/04/10 11:31:02;;;;;;;3.72;1.10;;;;;;;;;;4126551;34;20107;-93
2021/04/10 11:33:32;;;;;;;4.60;1.20;;;;;;;;;;4113547;34;20469;-93
2021/04/10 11:36:01;;;;;;;4.25;1.20;;;;;;;;;;4117135;34;20061;-92
2021/04/10 11:38:29;;;;;;;3.58;0.80;;;;;;;;;;4130129;34;20064;-94
2021/04/10 11:40:57;;;;;;;2.40;0.90;;;;;;;;;;4119279;34;20069;-91
2021/04/10 11:43:25;;;;;;;9.52;1.37;;;;;;;;;;4113423;34;20053;-91
2021/04/10 11:45:53;;;;;;;1.87;0.85;;;;;;;;;;4131867;34;20105;-92
2021/04/10 11:48:23;;;;;;;3.53;0.98;;;;;;;;;;4116373;34;20107;-92
2021/04/10 11:50:53;;;;;;;2.87;1.17;;;;;;;;;;4129609;34;20102;-93
2021/04/10 11:53:27;;;;;;;3.45;1.10;;;;;;;;;;4116159;34;20134;-94
2021/04/10 11:55:56;;;;;;;4.00;1.27;;;;;;;;;;4133800;34;20523;-94
2021/04/10 11:58:33;;;;;;;2.45;0.80;;;;;;;;;;4118315;34;20459;-94
2021/04/10 12:01:12;;;;;;;2.42;0.90;;;;;;;;;;4121068;34;20143;-94
2021/04/10 12:04:05;;;;;;;2.87;0.95;;;;;;;;;;4129643;34;20083;-92
2021/04/10 12:06:40;;;;;;;2.22;1.00;;;;;;;;;;4131302;34;20076;-94
2021/04/10 12:09:10;;;;;;;2.80;1.00;;;;;;;;;;4121837;34;20061;-93
2021/04/10 12:11:39;;;;;;;2.95;0.80;;;;;;;;;;4128080;34;20498;-95
2021/04/10 12:14:11;;;;;;;6.53;1.20;;;;;;;;;;4116697;34;20057;-93
2021/04/10 12:16:43;;;;;;;4.40;1.33;;;;;;;;;;4125658;34;20075;-94
2021/04/10 12:19:13;;;;;;;1.35;0.80;;;;;;;;;;4129841;34;20075;-92
2021/04/10 12:21:42;;;;;;;1.80;0.85;;;;;;;;;;4122525;34;20076;-94
2021/04/10 12:24:13;;;;;;;1.75;0.77;;;;;;;;;;4132057;34;20050;-94
2021/04/10 12:26:44;;;;;;;5.50;1.00;;;;;;;;;;4113364;34;20088;-93
2021/04/10 12:29:12;;;;;;;4.47;0.73;;;;;;;;;;4117540;34;20507;-92
2021/04/10 12:31:43;;;;;;;5.68;1.02;;;;;;;;;;4127847;34;20364;-93
2021/04/10 12:34:14;;;;;;;7.57;1.17;;;;;;;;;;4117741;34;20072;-92
2021/04/10 12:36:49;;;;;;;11.50;1.58;;;;;;;;;;4119728;34;20054;-92
2021/04/10 12:39:23;;;;;;;3.90;0.85;;;;;;;;;;4113073;34;20177;-91
2021/04/10 12:41:56;;;;;;;13.95;1.50;;;;;;;;;;4124499;34;20057;-91
2021/04/10 12:44:25;;;;;;;3.25;0.85;;;;;;;;;;4118399;34;20522;-92
2021/04/10 12:46:53;;;;;;;2.62;0.80;;;;;;;;;;4120904;34;20061;-93
2021/04/10 12:49:26;;;;;;;2.17;0.70;;;;;;;;;;4121410;34;20509;-93
2021/04/10 12:52:00;;;;;;;3.53;0.90;;;;;;;;;;4125284;34;20096;-93
2021/04/10 12:54:28;;;;;;;3.08;0.85;;;;;;;;;;4122314;34;20057;-94
2021/04/10 12:57:03;;;;;;;2.03;0.80;;;;;;;;;;4119414;34;20065;-93
2021/04/10 12:59:36;;;;;;;4.72;0.80;;;;;;;;;;4129601;34;20065;-93
2021/04/10 13:02:05;;;;;;;2.37;0.70;;;;;;;;;;4115120;34;20095;-92
2021/04/10 13:04:36;;;;;;;4.95;1.30;;;;;;;;;;4124656;34;20087;-94
2021/04/10 13:07:05;;;;;;;23.52;2.72;;;;;;;;;;4135363;34;20065;-92
2021/04/10 13:09:34;;;;;;;2.28;0.90;;;;;;;;;;4133343;34;20083;-91
2021/04/10 13:12:02;;;;;;;2.75;0.80;;;;;;;;;;4117568;34;20093;-93
2021/04/10 13:14:35;;;;;;;1.95;0.73;;;;;;;;;;4124319;34;20046;-92
2021/04/10 13:17:03;;;;;;;3.78;0.85;;;;;;;;;;4125583;34;20073;-92
2021/04/10 13:19:35;;;;;;;5.37;0.88;;;;;;;;;;4121642;34;20124;-93
2021/04/10 13:22:04;;;;;;;2.25;0.70;;;;;;;;;;4124641;34;20112;-92
2021/04/10 13:24:32;;;;;;;3.33;0.85;;;;;;;;;;4113404;34;20092;-91
2021/04/10 13:27:01;;;;;;;17.80;1.87;;;;;;;;;;4124445;34;20444;-93
2021/04/10 13:29:32;;;;;;;2.92;0.75;;;;;;;;;;4118843;34;20065;-93
2021/04/10 13:32:03;;;;;;;3.15;1.00;;;;;;;;;;4114624;34;20060;-94
2021/04/10 13:34:32;;;;;;;4.03;1.10;;;;;;;;;;4120921;34;20081;-94
2021/04/10 13:37:00;;;;;;;2.28;0.80;;;;;;;;;;4124714;34;20049;-93
2021/04/10 13:39:28;;;;;;;3.22;0.80;;;;;;;;;;4111563;34;20065;-94
2021/04/10 13:42:03;;;;;;;3.30;0.90;;;;;;;;;;4127464;34;20077;-91
2021/04/10 13:44:31;;;;;;;3.62;1.10;;;;;;;;;;4126247;34;20071;-94
2021/04/10 13:47:05;;;;;;;4.30;1.00;;;;;;;;;;4122123;34;20483;-96
2021/04/10 13:49:33;;;;;;;1.77;0.75;;;;;;;;;;4108718;34;20041;-94
2021/04/10 13:52:05;;;;;;;5.85;0.70;;;;;;;;;;4109963;34;20080;-94
2021/04/10 13:54:33;;;;;;;4.62;0.95;;;;;;;;;;4121243;34;20112;-91
2021/04/10 13:57:17;;;;;;;4.57;0.80;;;;;;;;;;4113698;34;20097;-94
2021/04/10 14:00:09;;;;;;;5.03;1.20;;;;;;;;;;4111772;34;20066;-92
2021/04/10 14:02:41;;;;;;;3.17;0.93;;;;;;;;;;4116614;34;20118;-92
2021/04/10 14:05:17;;;;;;;9.07;1.27;;;;;;;;;;4124039;34;20108;-95
2021/04/10 14:07:45;;;;;;;5.12;1.02;;;;;;;;;;4133342;34;20482;-93
2021/04/10 14:10:15;;;;;;;3.33;0.80;;;;;;;;;;4121625;34;20400;-92
2021/04/10 14:12:47;;;;;;;5.18;1.00;;;;;;;;;;4135161;34;20139;-95
2021/04/10 14:15:25;;;;;;;2.58;0.80;;;;;;;;;;4125357;34;20365;-94
2021/04/10 14:18:23;;;;;;;4.32;1.30;;;;;;;;;;4130845;34;20057;-95
2021/04/10 14:20:58;;;;;;;4.50;1.05;;;;;;;;;;4126107;34;20052;-94
2021/04/10 14:24:00;;;;;;;3.20;0.85;;;;;;;;;;4143382;34;20033;-94
2021/04/10 14:26:41;;;;;;;6.10;1.10;;;;;;;;;;4142588;34;20076;-94
2021/04/10 14:29:35;;;;;;;3.78;1.23;;;;;;;;;;4134917;34;20065;-95
2021/04/10 14:32:50;;;;;;;2.92;0.85;;;;;;;;;;4143810;34;20452;-94
2021/04/10 14:35:45;;;;;;;5.47;1.15;;;;;;;;;;4131279;34;20503;-95
2021/04/10 14:38:26;;;;;;;3.95;0.82;;;;;;;;;;4131749;34;20171;-95
2021/04/10 14:41:01;;;;;;;4.43;0.82;;;;;;;;;;4127148;34;20061;-95
2021/04/10 14:43:42;;;;;;;4.45;1.08;;;;;;;;;;4138447;34;20121;-96
2021/04/10 14:46:11;;;;;;;3.30;0.88;;;;;;;;;;4145495;34;20119;-94
2021/04/10 14:48:40;;;;;;;2.62;0.75;;;;;;;;;;4120640;34;20053;-94
2021/04/10 14:51:13;;;;;;;5.97;1.12;;;;;;;;;;4132857;34;20836;-95
2021/04/10 14:54:00;;;;;;;4.53;0.95;;;;;;;;;;4137549;34;20088;-94
2021/04/10 14:56:32;;;;;;;6.15;1.10;;;;;;;;;;4132545;34;20126;-94
2021/04/10 14:59:06;;;;;;;5.43;1.25;;;;;;;;;;4124119;34;21329;-94
2021/04/10 15:01:41;;;;;;;4.25;1.08;;;;;;;;;;4122376;34;20073;-95
2021/04/10 15:04:12;;;;;;;3.95;0.98;;;;;;;;;;4120540;34;20077;-94
2021/04/10 15:06:43;;;;;;;4.03;1.00;;;;;;;;;;4131482;34;20043;-95